Aérodrome :







RETROUVEZ-NOUS SUR...

 
LOGIN :

S'inscrire | Disclaimer

   EN    FR    IT 

 









Légende :    VFR   VFR Marginal   IFR   IFR Intensif   IFR Très Intensif
Visi : 
Plafond : 
>= 8 km
>= 3000ft
5 à 8 km
1000 à 3000 ft
1500m à 5 km
500 à 1000 ft
800 à 1500m
200 à 500 ft
< 800m
< 200 ft
Symboles :   Orages  Brouillard  Fortes neiges  Fortes précipitations  Vent > 20 kt






- Altitude de l'aérodrome : 357 ft
- Code IATA : YSJ


CYSJ - Saint John

DERNIER METAR :
  • 221500Z 26014G20KT 15SM FEW021 OVC210 M00/M12 A3000 RMK SC1CS7 SLP167

METARs EXPIRÉS :
  • 221400Z 26010G15KT 15SM FEW021 FEW210 M02/M12 A3000 RMK SC1CI1 SLP168
  • 221300Z 26007G16KT 15SM FEW021 FEW210 M03/M12 A3001 RMK SC1CI1 SLP171

TAF TAF CYSJ
Valide du 22 à 12h jusqu'au 23 à 00h UTC


221139Z 2212/2224 26010KT P6SM SKC
FM221700 27015KT P6SM FEW030 SCT170
FM222000 25007KT P6SM SCT040 RMK NXT FCST BY 221800Z



MET'MAP, la Météo Aéronautique d'un coup d'oeil ! - Copyright ORBIFLY Décembre 2007 - Disclaimer

ORBIFLY MET'MAP TEAM :

Programmation & Développement : Alexandra Zaïnal
Sur une idée originale de : Baudouin d'Aumeries
Assistance à la programmation : Marc-Olivier Méhu
Soutien technique & logistique : Manuel Goepfert

Contact : metmap@orbifly.com




SOURCES & CREDITS :

   NOAA